sensor_id;sensor_type;location;lat;lon;timestamp;pressure;altitude;pressure_sealevel;temperature;humidity
45403;BME280;47427;51.976;5.326;2024-02-15T00:02:45;101603.72;;;11.97;100.00
45403;BME280;47427;51.976;5.326;2024-02-15T00:05:47;101611.69;;;11.98;100.00
45403;BME280;47427;51.976;5.326;2024-02-15T00:08:50;101607.25;;;11.97;100.00
45403;BME280;47427;51.976;5.326;2024-02-15T00:11:53;101604.75;;;12.00;100.00
45403;BME280;47427;51.976;5.326;2024-02-15T00:14:56;101594.06;;;11.96;100.00
45403;BME280;47427;51.976;5.326;2024-02-15T00:18:00;101591.44;;;11.96;100.00
45403;BME280;47427;51.976;5.326;2024-02-15T00:21:05;101592.22;;;11.93;100.00
45403;BME280;47427;51.976;5.326;2024-02-15T00:24:07;101595.66;;;11.90;100.00
45403;BME280;47427;51.976;5.326;2024-02-15T00:27:10;101596.59;;;11.92;100.00
45403;BME280;47427;51.976;5.326;2024-02-15T00:30:13;101594.00;;;11.94;100.00
45403;BME280;47427;51.976;5.326;2024-02-15T00:33:16;101597.41;;;11.91;100.00
45403;BME280;47427;51.976;5.326;2024-02-15T00:36:18;101595.66;;;11.90;100.00
45403;BME280;47427;51.976;5.326;2024-02-15T00:39:21;101594.78;;;11.91;100.00
45403;BME280;47427;51.976;5.326;2024-02-15T00:42:24;101592.16;;;11.91;100.00
45403;BME280;47427;51.976;5.326;2024-02-15T00:45:28;101593.13;;;11.93;100.00
45403;BME280;47427;51.976;5.326;2024-02-15T00:48:30;101589.53;;;11.91;100.00
45403;BME280;47427;51.976;5.326;2024-02-15T00:51:33;101589.44;;;11.88;100.00
45403;BME280;47427;51.976;5.326;2024-02-15T00:54:37;101586.91;;;11.91;100.00
45403;BME280;47427;51.976;5.326;2024-02-15T00:57:39;101579.81;;;11.89;100.00
45403;BME280;47427;51.976;5.326;2024-02-15T01:00:41;101578.13;;;11.91;100.00
45403;BME280;47427;51.976;5.326;2024-02-15T01:03:44;101579.81;;;11.89;100.00
45403;BME280;47427;51.976;5.326;2024-02-15T01:06:46;101569.28;;;11.89;100.00
45403;BME280;47427;51.976;5.326;2024-02-15T01:09:49;101576.31;;;11.90;100.00
45403;BME280;47427;51.976;5.326;2024-02-15T01:12:51;101573.59;;;11.87;100.00
45403;BME280;47427;51.976;5.326;2024-02-15T01:15:54;101579.97;;;11.93;100.00
45403;BME280;47427;51.976;5.326;2024-02-15T01:18:57;101571.19;;;11.93;100.00
45403;BME280;47427;51.976;5.326;2024-02-15T01:22:18;101579.91;;;11.92;100.00
45403;BME280;47427;51.976;5.326;2024-02-15T01:25:21;101574.66;;;11.92;100.00
45403;BME280;47427;51.976;5.326;2024-02-15T01:28:24;101573.03;;;11.96;100.00
45403;BME280;47427;51.976;5.326;2024-02-15T01:31:27;101576.59;;;11.98;100.00
45403;BME280;47427;51.976;5.326;2024-02-15T01:34:30;101577.53;;;12.00;100.00
45403;BME280;47427;51.976;5.326;2024-02-15T01:37:31;101573.03;;;11.96;100.00
45403;BME280;47427;51.976;5.326;2024-02-15T01:40:34;101566.09;;;11.98;100.00
45403;BME280;47427;51.976;5.326;2024-02-15T01:43:44;101560.81;;;11.98;100.00
45403;BME280;47427;51.976;5.326;2024-02-15T01:46:51;101560.84;;;11.99;100.00
45403;BME280;47427;51.976;5.326;2024-02-15T01:49:55;101559.91;;;11.97;100.00
45403;BME280;47427;51.976;5.326;2024-02-15T01:52:59;101563.56;;;12.02;100.00
45403;BME280;47427;51.976;5.326;2024-02-15T01:56:04;101565.22;;;11.99;100.00
45403;BME280;47427;51.976;5.326;2024-02-15T01:59:07;101549.44;;;11.99;100.00
45403;BME280;47427;51.976;5.326;2024-02-15T02:02:11;101550.31;;;11.98;100.00
45403;BME280;47427;51.976;5.326;2024-02-15T02:05:17;101547.41;;;11.90;100.00
45403;BME280;47427;51.976;5.326;2024-02-15T02:08:20;101549.13;;;11.88;100.00
45403;BME280;47427;51.976;5.326;2024-02-15T02:11:23;101553.56;;;11.90;100.00
45403;BME280;47427;51.976;5.326;2024-02-15T02:14:25;101543.59;;;11.82;100.00
45403;BME280;47427;51.976;5.326;2024-02-15T02:17:28;101544.50;;;11.82;100.00
45403;BME280;47427;51.976;5.326;2024-02-15T02:20:31;101542.72;;;11.81;100.00
45403;BME280;47427;51.976;5.326;2024-02-15T02:23:33;101537.63;;;11.86;100.00
45403;BME280;47427;51.976;5.326;2024-02-15T02:26:35;101538.91;;;11.71;100.00
45403;BME280;47427;51.976;5.326;2024-02-15T02:29:43;101526.25;;;11.60;100.00
45403;BME280;47427;51.976;5.326;2024-02-15T02:32:49;101525.25;;;11.56;100.00
45403;BME280;47427;51.976;5.326;2024-02-15T02:35:51;101517.91;;;11.46;100.00
45403;BME280;47427;51.976;5.326;2024-02-15T02:38:53;101533.63;;;11.44;100.00
45403;BME280;47427;51.976;5.326;2024-02-15T02:41:56;101524.75;;;11.41;100.00
45403;BME280;47427;51.976;5.326;2024-02-15T02:44:59;101526.53;;;11.42;100.00
45403;BME280;47427;51.976;5.326;2024-02-15T02:48:02;101525.53;;;11.38;100.00
45403;BME280;47427;51.976;5.326;2024-02-15T02:51:06;101521.47;;;11.48;100.00
45403;BME280;47427;51.976;5.326;2024-02-15T02:54:09;101512.97;;;11.55;100.00
45403;BME280;47427;51.976;5.326;2024-02-15T02:57:12;101518.31;;;11.58;100.00
45403;BME280;47427;51.976;5.326;2024-02-15T03:00:33;101523.66;;;11.61;100.00
45403;BME280;47427;51.976;5.326;2024-02-15T03:03:36;101516.63;;;11.60;100.00
45403;BME280;47427;51.976;5.326;2024-02-15T03:06:40;101512.41;;;11.65;100.00
45403;BME280;47427;51.976;5.326;2024-02-15T03:09:44;101515.09;;;11.67;100.00
45403;BME280;47427;51.976;5.326;2024-02-15T03:12:47;101517.72;;;11.67;100.00
45403;BME280;47427;51.976;5.326;2024-02-15T03:15:49;101517.72;;;11.67;100.00
45403;BME280;47427;51.976;5.326;2024-02-15T03:18:52;101508.06;;;11.66;100.00
45403;BME280;47427;51.976;5.326;2024-02-15T03:21:55;101502.06;;;11.70;100.00
45403;BME280;47427;51.976;5.326;2024-02-15T03:24:58;101505.59;;;11.72;100.00
45403;BME280;47427;51.976;5.326;2024-02-15T03:28:00;101503.94;;;11.74;100.00
45403;BME280;47427;51.976;5.326;2024-02-15T03:31:05;101500.31;;;11.70;100.00
45403;BME280;47427;51.976;5.326;2024-02-15T03:34:09;101506.53;;;11.73;100.00
45403;BME280;47427;51.976;5.326;2024-02-15T03:37:13;101513.25;;;11.64;100.00
45403;BME280;47427;51.976;5.326;2024-02-15T03:40:14;101500.00;;;11.61;100.00
45403;BME280;47427;51.976;5.326;2024-02-15T03:43:17;101511.53;;;11.65;100.00
45403;BME280;47427;51.976;5.326;2024-02-15T03:46:20;101504.47;;;11.64;100.00
45403;BME280;47427;51.976;5.326;2024-02-15T03:49:23;101506.28;;;11.65;100.00
45403;BME280;47427;51.976;5.326;2024-02-15T03:52:25;101502.94;;;11.70;100.00
45403;BME280;47427;51.976;5.326;2024-02-15T03:55:27;101505.50;;;11.69;100.00
45403;BME280;47427;51.976;5.326;2024-02-15T03:58:30;101488.91;;;11.70;100.00
45403;BME280;47427;51.976;5.326;2024-02-15T04:01:36;101495.16;;;11.74;100.00
45403;BME280;47427;51.976;5.326;2024-02-15T04:04:38;101490.78;;;11.74;100.00
45403;BME280;47427;51.976;5.326;2024-02-15T04:07:44;101493.25;;;11.69;100.00
45403;BME280;47427;51.976;5.326;2024-02-15T04:10:47;101490.75;;;11.73;100.00
45403;BME280;47427;51.976;5.326;2024-02-15T04:13:50;101503.97;;;11.76;100.00
45403;BME280;47427;51.976;5.326;2024-02-15T04:16:53;101502.16;;;11.73;100.00
45403;BME280;47427;51.976;5.326;2024-02-15T04:19:54;101501.28;;;11.73;100.00
45403;BME280;47427;51.976;5.326;2024-02-15T04:22:58;101500.41;;;11.74;100.00
45403;BME280;47427;51.976;5.326;2024-02-15T04:26:02;101498.66;;;11.74;100.00
45403;BME280;47427;51.976;5.326;2024-02-15T04:29:06;101499.63;;;11.76;100.00
45403;BME280;47427;51.976;5.326;2024-02-15T04:32:12;101488.22;;;11.76;100.00
45403;BME280;47427;51.976;5.326;2024-02-15T04:35:14;101489.09;;;11.76;100.00
45403;BME280;47427;51.976;5.326;2024-02-15T04:38:17;101495.16;;;11.74;100.00
45403;BME280;47427;51.976;5.326;2024-02-15T04:41:21;101491.66;;;11.75;100.00
45403;BME280;47427;51.976;5.326;2024-02-15T04:44:26;101475.88;;;11.73;100.00
45403;BME280;47427;51.976;5.326;2024-02-15T04:47:32;101474.13;;;11.74;100.00
45403;BME280;47427;51.976;5.326;2024-02-15T04:50:34;101474.06;;;11.72;100.00
45403;BME280;47427;51.976;5.326;2024-02-15T04:53:38;101485.53;;;11.74;100.00
45403;BME280;47427;51.976;5.326;2024-02-15T04:56:40;101478.59;;;11.76;100.00
45403;BME280;47427;51.976;5.326;2024-02-15T04:59:42;101475.91;;;11.75;100.00
45403;BME280;47427;51.976;5.326;2024-02-15T05:02:49;101473.25;;;11.73;100.00
45403;BME280;47427;51.976;5.326;2024-02-15T05:05:52;101478.53;;;11.75;100.00
45403;BME280;47427;51.976;5.326;2024-02-15T05:08:55;101474.97;;;11.73;100.00
45403;BME280;47427;51.976;5.326;2024-02-15T05:12:01;101481.13;;;11.73;100.00
45403;BME280;47427;51.976;5.326;2024-02-15T05:15:05;101474.91;;;11.71;100.00
45403;BME280;47427;51.976;5.326;2024-02-15T05:18:14;101475.78;;;11.70;100.00
45403;BME280;47427;51.976;5.326;2024-02-15T05:21:17;101482.72;;;11.68;100.00
45403;BME280;47427;51.976;5.326;2024-02-15T05:24:18;101479.19;;;11.67;100.00
45403;BME280;47427;51.976;5.326;2024-02-15T05:27:40;101483.66;;;11.70;100.00
45403;BME280;47427;51.976;5.326;2024-02-15T05:30:43;101479.22;;;11.69;100.00
45403;BME280;47427;51.976;5.326;2024-02-15T05:33:49;101480.97;;;11.68;100.00
45403;BME280;47427;51.976;5.326;2024-02-15T05:36:52;101464.31;;;11.68;100.00
45403;BME280;47427;51.976;5.326;2024-02-15T05:39:55;101446.88;;;11.71;100.00
45403;BME280;47427;51.976;5.326;2024-02-15T05:42:58;101410.06;;;11.70;100.00
45403;BME280;47427;51.976;5.326;2024-02-15T05:46:01;101390.63;;;11.65;100.00
45403;BME280;47427;51.976;5.326;2024-02-15T05:49:02;101381.59;;;11.57;100.00
45403;BME280;47427;51.976;5.326;2024-02-15T05:52:07;101385.16;;;11.59;100.00
45403;BME280;47427;51.976;5.326;2024-02-15T05:55:11;101397.59;;;11.64;100.00
45403;BME280;47427;51.976;5.326;2024-02-15T05:58:14;101396.78;;;11.67;100.00
45403;BME280;47427;51.976;5.326;2024-02-15T06:01:16;101412.63;;;11.68;100.00
45403;BME280;47427;51.976;5.326;2024-02-15T06:04:18;101419.72;;;11.71;100.00
45403;BME280;47427;51.976;5.326;2024-02-15T06:07:22;101432.13;;;11.75;100.00
45403;BME280;47427;51.976;5.326;2024-02-15T06:10:25;101427.69;;;11.74;100.00
45403;BME280;47427;51.976;5.326;2024-02-15T06:13:27;101434.69;;;11.74;100.00
45403;BME280;47427;51.976;5.326;2024-02-15T06:16:49;101429.38;;;11.72;100.00
45403;BME280;47427;51.976;5.326;2024-02-15T06:19:50;101433.81;;;11.73;100.00
45403;BME280;47427;51.976;5.326;2024-02-15T06:22:53;101430.31;;;11.74;100.00
45403;BME280;47427;51.976;5.326;2024-02-15T06:25:56;101434.75;;;11.75;100.00
45403;BME280;47427;51.976;5.326;2024-02-15T06:29:00;101424.13;;;11.72;100.00
45403;BME280;47427;51.976;5.326;2024-02-15T06:32:22;101417.16;;;11.73;100.00
45403;BME280;47427;51.976;5.326;2024-02-15T06:35:43;101420.69;;;11.75;100.00
45403;BME280;47427;51.976;5.326;2024-02-15T06:39:04;101422.44;;;11.74;100.00
45403;BME280;47427;51.976;5.326;2024-02-15T06:42:24;101416.34;;;11.75;100.00
45403;BME280;47427;51.976;5.326;2024-02-15T06:45:29;101419.88;;;11.77;100.00
45403;BME280;47427;51.976;5.326;2024-02-15T06:48:53;101404.16;;;11.79;100.00
45403;BME280;47427;51.976;5.326;2024-02-15T06:51:57;101404.97;;;11.76;100.00
45403;BME280;47427;51.976;5.326;2024-02-15T06:55:01;101420.84;;;11.79;100.00
45403;BME280;47427;51.976;5.326;2024-02-15T06:58:04;101426.09;;;11.79;100.00
45403;BME280;47427;51.976;5.326;2024-02-15T07:01:08;101420.75;;;11.76;100.00
45403;BME280;47427;51.976;5.326;2024-02-15T07:04:10;101404.97;;;11.76;100.00
45403;BME280;47427;51.976;5.326;2024-02-15T07:07:13;101409.50;;;11.80;100.00
45403;BME280;47427;51.976;5.326;2024-02-15T07:10:17;101416.53;;;11.81;100.00
45403;BME280;47427;51.976;5.326;2024-02-15T07:13:19;101414.59;;;11.76;100.00
45403;BME280;47427;51.976;5.326;2024-02-15T07:16:21;101412.91;;;11.78;100.00
45403;BME280;47427;51.976;5.326;2024-02-15T07:19:24;101412.00;;;11.77;100.00
45403;BME280;47427;51.976;5.326;2024-02-15T07:22:32;101412.88;;;11.76;100.00
45403;BME280;47427;51.976;5.326;2024-02-15T07:25:36;101419.00;;;11.77;100.00
45403;BME280;47427;51.976;5.326;2024-02-15T07:28:38;101423.31;;;11.75;100.00
45403;BME280;47427;51.976;5.326;2024-02-15T07:31:41;101428.47;;;11.70;100.00
45403;BME280;47427;51.976;5.326;2024-02-15T07:34:44;101437.97;;;11.66;100.00
45403;BME280;47427;51.976;5.326;2024-02-15T07:37:52;101445.06;;;11.69;100.00
45403;BME280;47427;51.976;5.326;2024-02-15T07:40:56;101453.88;;;11.71;100.00
45403;BME280;47427;51.976;5.326;2024-02-15T07:43:59;101461.03;;;11.75;100.00
45403;BME280;47427;51.976;5.326;2024-02-15T07:47:06;101464.69;;;11.80;100.00
45403;BME280;47427;51.976;5.326;2024-02-15T07:50:10;101469.19;;;11.84;100.00
45403;BME280;47427;51.976;5.326;2024-02-15T07:53:12;101464.81;;;11.85;100.00
45403;BME280;47427;51.976;5.326;2024-02-15T07:56:34;101452.53;;;11.84;100.00
45403;BME280;47427;51.976;5.326;2024-02-15T07:59:36;101451.75;;;11.86;100.00
45403;BME280;47427;51.976;5.326;2024-02-15T08:02:44;101461.53;;;11.90;100.00
45403;BME280;47427;51.976;5.326;2024-02-15T08:05:46;101469.53;;;11.93;100.00
45403;BME280;47427;51.976;5.326;2024-02-15T08:08:49;101472.22;;;11.95;100.00
45403;BME280;47427;51.976;5.326;2024-02-15T08:11:54;101467.03;;;11.98;100.00
45403;BME280;47427;51.976;5.326;2024-02-15T08:14:58;101471.44;;;11.99;100.00
45403;BME280;47427;51.976;5.326;2024-02-15T08:18:01;101466.97;;;11.97;100.00
45403;BME280;47427;51.976;5.326;2024-02-15T08:21:06;101461.69;;;11.95;100.00
45403;BME280;47427;51.976;5.326;2024-02-15T08:24:09;101443.94;;;11.88;100.00
45403;BME280;47427;51.976;5.326;2024-02-15T08:27:11;101439.50;;;11.87;100.00
45403;BME280;47427;51.976;5.326;2024-02-15T08:30:15;101430.81;;;11.89;100.00
45403;BME280;47427;51.976;5.326;2024-02-15T08:33:16;101436.81;;;11.85;100.00
45403;BME280;47427;51.976;5.326;2024-02-15T08:36:22;101438.81;;;11.92;100.00
45403;BME280;47427;51.976;5.326;2024-02-15T08:39:25;101431.03;;;11.97;100.00
45403;BME280;47427;51.976;5.326;2024-02-15T08:42:27;101432.84;;;11.98;100.00
45403;BME280;47427;51.976;5.326;2024-02-15T08:45:29;101418.56;;;11.90;100.00
45403;BME280;47427;51.976;5.326;2024-02-15T08:48:32;101427.34;;;11.90;100.00
45403;BME280;47427;51.976;5.326;2024-02-15T08:51:35;101413.97;;;11.84;100.00
45403;BME280;47427;51.976;5.326;2024-02-15T08:54:39;101406.16;;;11.86;100.00
45403;BME280;47427;51.976;5.326;2024-02-15T08:57:41;101407.22;;;11.91;100.00
45403;BME280;47427;51.976;5.326;2024-02-15T09:00:46;101406.34;;;11.92;100.00
45403;BME280;47427;51.976;5.326;2024-02-15T09:03:49;101411.66;;;11.93;100.00
45403;BME280;47427;51.976;5.326;2024-02-15T09:06:52;101402.75;;;11.88;100.00
45403;BME280;47427;51.976;5.326;2024-02-15T09:09:54;101399.47;;;11.97;100.00
45403;BME280;47427;51.976;5.326;2024-02-15T09:12:57;101420.66;;;12.02;100.00
45403;BME280;47427;51.976;5.326;2024-02-15T09:16:00;101416.28;;;12.02;100.00
45403;BME280;47427;51.976;5.326;2024-02-15T09:19:03;101413.63;;;12.01;100.00
45403;BME280;47427;51.976;5.326;2024-02-15T09:22:07;101415.53;;;12.06;100.00
45403;BME280;47427;51.976;5.326;2024-02-15T09:25:10;101415.63;;;12.09;100.00
45403;BME280;47427;51.976;5.326;2024-02-15T09:28:13;101422.72;;;12.12;100.00
45403;BME280;47427;51.976;5.326;2024-02-15T09:31:16;101416.50;;;12.08;100.00
45403;BME280;47427;51.976;5.326;2024-02-15T09:34:18;101411.47;;;12.18;100.00
45403;BME280;47427;51.976;5.326;2024-02-15T09:37:20;101410.56;;;12.16;100.00
45403;BME280;47427;51.976;5.326;2024-02-15T09:40:23;101420.00;;;12.09;100.00
45403;BME280;47427;51.976;5.326;2024-02-15T09:43:29;101421.75;;;12.08;100.00
45403;BME280;47427;51.976;5.326;2024-02-15T09:46:39;101412.28;;;12.15;100.00
45403;BME280;47427;51.976;5.326;2024-02-15T09:49:44;101412.34;;;12.17;100.00
45403;BME280;47427;51.976;5.326;2024-02-15T09:52:52;101417.59;;;12.17;100.00
45403;BME280;47427;51.976;5.326;2024-02-15T09:55:57;101413.28;;;12.19;100.00
45403;BME280;47427;51.976;5.326;2024-02-15T09:59:05;101411.44;;;12.16;100.00
45403;BME280;47427;51.976;5.326;2024-02-15T10:02:10;101408.97;;;12.22;100.00
45403;BME280;47427;51.976;5.326;2024-02-15T10:05:17;101411.00;;;12.31;100.00
45403;BME280;47427;51.976;5.326;2024-02-15T10:08:20;101400.72;;;12.40;100.00
45403;BME280;47427;51.976;5.326;2024-02-15T10:11:22;101403.47;;;12.45;100.00
45403;BME280;47427;51.976;5.326;2024-02-15T10:14:28;101414.13;;;12.49;100.00
45403;BME280;47427;51.976;5.326;2024-02-15T10:17:31;101411.50;;;12.49;100.00
45403;BME280;47427;51.976;5.326;2024-02-15T10:20:38;101412.34;;;12.48;100.00
45403;BME280;47427;51.976;5.326;2024-02-15T10:23:40;101406.50;;;12.58;100.00
45403;BME280;47427;51.976;5.326;2024-02-15T10:26:43;101405.97;;;12.73;100.00
45403;BME280;47427;51.976;5.326;2024-02-15T10:30:18;101409.63;;;12.78;100.00
45403;BME280;47427;51.976;5.326;2024-02-15T10:33:28;101408.78;;;12.79;100.00
45403;BME280;47427;51.976;5.326;2024-02-15T10:36:34;101409.47;;;12.72;100.00
45403;BME280;47427;51.976;5.326;2024-02-15T10:39:38;101405.16;;;12.74;100.00
45403;BME280;47427;51.976;5.326;2024-02-15T10:42:41;101410.00;;;12.92;100.00
45403;BME280;47427;51.976;5.326;2024-02-15T10:45:45;101403.22;;;13.02;100.00
45403;BME280;47427;51.976;5.326;2024-02-15T10:48:48;101392.69;;;13.02;100.00
45403;BME280;47427;51.976;5.326;2024-02-15T10:51:57;101396.94;;;12.97;100.00
45403;BME280;47427;51.976;5.326;2024-02-15T10:55:05;101382.09;;;12.99;100.00
45403;BME280;47427;51.976;5.326;2024-02-15T10:58:19;101385.84;;;13.10;100.00
45403;BME280;47427;51.976;5.326;2024-02-15T11:01:23;101394.75;;;13.15;100.00
45403;BME280;47427;51.976;5.326;2024-02-15T11:04:31;101382.66;;;13.23;100.00
45403;BME280;47427;51.976;5.326;2024-02-15T11:07:37;101383.81;;;13.33;100.00
45403;BME280;47427;51.976;5.326;2024-02-15T11:10:42;101380.41;;;13.39;100.00
45403;BME280;47427;51.976;5.326;2024-02-15T11:13:46;101384.03;;;13.44;100.00
45403;BME280;47427;51.976;5.326;2024-02-15T11:16:51;101381.69;;;13.56;100.00
45403;BME280;47427;51.976;5.326;2024-02-15T11:19:53;101385.31;;;13.60;100.00
45403;BME280;47427;51.976;5.326;2024-02-15T11:22:57;101380.81;;;13.56;100.00
45403;BME280;47427;51.976;5.326;2024-02-15T11:25:59;101381.69;;;13.55;100.00
45403;BME280;47427;51.976;5.326;2024-02-15T11:29:03;101368.69;;;13.64;100.00
45403;BME280;47427;51.976;5.326;2024-02-15T11:32:06;101365.19;;;13.65;100.00
45403;BME280;47427;51.976;5.326;2024-02-15T11:35:14;101366.25;;;13.73;100.00
45403;BME280;47427;51.976;5.326;2024-02-15T11:38:38;101369.59;;;13.66;100.00
45403;BME280;47427;51.976;5.326;2024-02-15T11:41:45;101364.72;;;13.84;100.00
45403;BME280;47427;51.976;5.326;2024-02-15T11:45:07;101364.88;;;13.92;100.00
45403;BME280;47427;51.976;5.326;2024-02-15T11:48:12;101353.81;;;14.10;100.00
45403;BME280;47427;51.976;5.326;2024-02-15T11:51:33;101350.63;;;14.28;100.00
45403;BME280;47427;51.976;5.326;2024-02-15T11:54:39;101344.84;;;14.46;100.00
45403;BME280;47427;51.976;5.326;2024-02-15T11:57:42;101330.34;;;14.72;100.00
45403;BME280;47427;51.976;5.326;2024-02-15T12:00:51;101328.00;;;14.89;100.00
45403;BME280;47427;51.976;5.326;2024-02-15T12:04:12;101319.00;;;15.36;100.00
45403;BME280;47427;51.976;5.326;2024-02-15T12:07:33;101315.91;;;15.68;100.00
45403;BME280;47427;51.976;5.326;2024-02-15T12:10:58;101313.63;;;15.95;100.00
45403;BME280;47427;51.976;5.326;2024-02-15T12:14:19;101304.38;;;16.40;100.00
45403;BME280;47427;51.976;5.326;2024-02-15T12:17:40;101305.81;;;16.06;100.00
45403;BME280;47427;51.976;5.326;2024-02-15T12:21:01;101305.78;;;16.03;100.00
45403;BME280;47427;51.976;5.326;2024-02-15T12:24:05;101300.47;;;16.01;100.00
45403;BME280;47427;51.976;5.326;2024-02-15T12:27:08;101287.88;;;15.82;100.00
45403;BME280;47427;51.976;5.326;2024-02-15T12:30:17;101290.69;;;15.97;100.00
45403;BME280;47427;51.976;5.326;2024-02-15T12:33:24;101281.03;;;15.98;100.00
45403;BME280;47427;51.976;5.326;2024-02-15T12:36:26;101278.19;;;15.81;100.00
45403;BME280;47427;51.976;5.326;2024-02-15T12:39:30;101276.97;;;16.34;100.00
45403;BME280;47427;51.976;5.326;2024-02-15T12:42:38;101277.81;;;17.53;100.00
45403;BME280;47427;51.976;5.326;2024-02-15T12:45:41;101274.31;;;17.62;100.00
45403;BME280;47427;51.976;5.326;2024-02-15T12:48:44;101257.50;;;17.62;100.00
45403;BME280;47427;51.976;5.326;2024-02-15T12:51:52;101263.38;;;16.98;100.00
45403;BME280;47427;51.976;5.326;2024-02-15T12:55:18;101251.47;;;16.48;100.00
45403;BME280;47427;51.976;5.326;2024-02-15T12:58:23;101254.72;;;16.18;100.00
45403;BME280;47427;51.976;5.326;2024-02-15T13:01:29;101256.53;;;16.19;100.00
45403;BME280;47427;51.976;5.326;2024-02-15T13:04:31;101247.34;;;16.81;100.00
45403;BME280;47427;51.976;5.326;2024-02-15T13:07:36;101249.75;;;19.00;100.00
45403;BME280;47427;51.976;5.326;2024-02-15T13:10:39;101248.84;;;18.42;100.00
45403;BME280;47427;51.976;5.326;2024-02-15T13:13:41;101243.53;;;18.30;100.00
45403;BME280;47427;51.976;5.326;2024-02-15T13:16:45;101242.66;;;18.80;100.00
45403;BME280;47427;51.976;5.326;2024-02-15T13:19:49;101235.59;;;18.36;100.00
45403;BME280;47427;51.976;5.326;2024-02-15T13:22:50;101234.41;;;17.33;100.00
45403;BME280;47427;51.976;5.326;2024-02-15T13:25:54;101225.28;;;16.83;100.00
45403;BME280;47427;51.976;5.326;2024-02-15T13:28:59;101220.09;;;16.97;100.00
45403;BME280;47427;51.976;5.326;2024-02-15T13:32:02;101209.75;;;17.66;100.00
45403;BME280;47427;51.976;5.326;2024-02-15T13:35:06;101200.94;;;17.67;100.00
45403;BME280;47427;51.976;5.326;2024-02-15T13:38:15;101199.13;;;17.55;100.00
45403;BME280;47427;51.976;5.326;2024-02-15T13:41:25;101189.44;;;17.74;100.00
45403;BME280;47427;51.976;5.326;2024-02-15T13:44:27;101186.88;;;18.36;100.00
45403;BME280;47427;51.976;5.326;2024-02-15T13:47:31;101185.47;;;19.92;100.00
45403;BME280;47427;51.976;5.326;2024-02-15T13:50:35;101179.38;;;19.78;100.00
45403;BME280;47427;51.976;5.326;2024-02-15T13:53:38;101178.75;;;19.17;100.00
45403;BME280;47427;51.976;5.326;2024-02-15T13:56:40;101176.22;;;18.57;100.00
45403;BME280;47427;51.976;5.326;2024-02-15T13:59:42;101178.91;;;18.37;100.00
45403;BME280;47427;51.976;5.326;2024-02-15T14:02:45;101167.38;;;18.35;100.00
45403;BME280;47427;51.976;5.326;2024-02-15T14:05:48;101160.28;;;18.40;100.00
45403;BME280;47427;51.976;5.326;2024-02-15T14:08:52;101159.44;;;18.34;100.00
45403;BME280;47427;51.976;5.326;2024-02-15T14:11:53;101147.81;;;17.60;100.00
45403;BME280;47427;51.976;5.326;2024-02-15T14:14:57;101160.13;;;17.27;100.00
45403;BME280;47427;51.976;5.326;2024-02-15T14:17:59;101149.53;;;17.33;100.00
45403;BME280;47427;51.976;5.326;2024-02-15T14:21:04;101155.88;;;18.27;100.00
45403;BME280;47427;51.976;5.326;2024-02-15T14:24:07;101148.81;;;18.11;100.00
45403;BME280;47427;51.976;5.326;2024-02-15T14:27:10;101150.41;;;17.29;100.00
45403;BME280;47427;51.976;5.326;2024-02-15T14:30:14;101144.94;;;16.89;100.00
45403;BME280;47427;51.976;5.326;2024-02-15T14:33:35;101148.19;;;16.48;100.00
45403;BME280;47427;51.976;5.326;2024-02-15T14:36:38;101149.75;;;16.18;100.00
45403;BME280;47427;51.976;5.326;2024-02-15T14:39:39;101148.81;;;16.13;100.00
45403;BME280;47427;51.976;5.326;2024-02-15T14:42:42;101147.78;;;15.97;100.00
45403;BME280;47427;51.976;5.326;2024-02-15T14:45:45;101140.59;;;15.81;100.00
45403;BME280;47427;51.976;5.326;2024-02-15T14:48:48;101141.41;;;15.72;100.00
45403;BME280;47427;51.976;5.326;2024-02-15T14:51:49;101141.28;;;15.63;100.00
45403;BME280;47427;51.976;5.326;2024-02-15T14:54:53;101133.38;;;15.66;100.00
45403;BME280;47427;51.976;5.326;2024-02-15T14:57:57;101138.66;;;15.66;100.00
45403;BME280;47427;51.976;5.326;2024-02-15T15:01:00;101139.41;;;15.53;100.00
45403;BME280;47427;51.976;5.326;2024-02-15T15:04:02;101134.13;;;15.53;100.00
45403;BME280;47427;51.976;5.326;2024-02-15T15:07:08;101128.63;;;15.34;100.00
45403;BME280;47427;51.976;5.326;2024-02-15T15:10:29;101122.34;;;15.26;100.00
45403;BME280;47427;51.976;5.326;2024-02-15T15:13:51;101123.06;;;15.11;100.00
45403;BME280;47427;51.976;5.326;2024-02-15T15:16:54;101117.78;;;15.11;100.00
45403;BME280;47427;51.976;5.326;2024-02-15T15:19:56;101119.56;;;15.12;100.00
45403;BME280;47427;51.976;5.326;2024-02-15T15:22:59;101121.25;;;15.09;100.00
45403;BME280;47427;51.976;5.326;2024-02-15T15:26:02;101116.88;;;15.08;100.00
45403;BME280;47427;51.976;5.326;2024-02-15T15:29:05;101113.47;;;15.21;100.00
45403;BME280;47427;51.976;5.326;2024-02-15T15:32:07;101107.44;;;15.31;100.00
45403;BME280;47427;51.976;5.326;2024-02-15T15:35:11;101106.56;;;15.32;100.00
45403;BME280;47427;51.976;5.326;2024-02-15T15:38:15;101104.78;;;15.30;100.00
45403;BME280;47427;51.976;5.326;2024-02-15T15:41:18;101099.34;;;15.14;100.00
45403;BME280;47427;51.976;5.326;2024-02-15T15:44:20;101092.09;;;15.00;100.00
45403;BME280;47427;51.976;5.326;2024-02-15T15:47:25;101092.06;;;14.97;100.00
45403;BME280;47427;51.976;5.326;2024-02-15T15:50:28;101092.13;;;15.03;100.00
45403;BME280;47427;51.976;5.326;2024-02-15T15:53:35;101084.00;;;14.84;100.00
45403;BME280;47427;51.976;5.326;2024-02-15T15:56:37;101086.53;;;14.77;100.00